Time;durP1;ratioP1;P1;durP2;ratioP2;P2;SDS_P1;SDS_P2;PMS_P1;PMS_P2;Temp;Humidity;BMP_temperature;BMP_pressure;BME280_temperature;BME280_humidity;BME280_pressure;Samples;Min_cycle;Max_cycle;Signal;HPM_P1;HPM_P2
2021/03/02 00:02:07;;;;;;;;;;;7.40;84.30;;;;;;5103307;28;19973;-59
2021/03/02 00:04:33;;;;;;;;;;;7.40;84.50;;;;;;5092050;28;19912;-60
2021/03/02 00:06:58;;;;;;;;;;;7.40;84.50;;;;;;5067424;28;19933;-58
2021/03/02 00:09:24;;;;;;;;;;;7.40;84.60;;;;;;5112146;28;19943;-58
2021/03/02 00:11:50;;;;;;;;;;;7.30;84.50;;;;;;5113852;27;19908;-60
2021/03/02 00:14:15;;;;;;;;;;;7.30;84.50;;;;;;5095430;28;20279;-59
2021/03/02 00:16:44;;;;;;;;;;;7.30;84.60;;;;;;5110917;28;19908;-58
2021/03/02 00:19:13;;;;;;;;;;;7.30;84.70;;;;;;5097813;28;19915;-57
2021/03/02 00:21:40;;;;;;;;;;;7.20;84.60;;;;;;5113221;27;19962;-59
2021/03/02 00:24:06;;;;;;;;;;;7.30;84.80;;;;;;5112847;27;19920;-62
2021/03/02 00:26:31;;;;;;;;;;;7.20;84.70;;;;;;5096119;28;19919;-60
2021/03/02 00:28:57;;;;;;;;;;;7.20;84.80;;;;;;5094706;28;19998;-58
2021/03/02 00:31:23;;;;;;;;;;;7.10;84.80;;;;;;5096145;28;20005;-57
2021/03/02 00:33:48;;;;;;;;;;;7.10;84.90;;;;;;5091917;28;19918;-57
2021/03/02 00:36:13;;;;;;;;;;;7.10;84.90;;;;;;5097860;28;19915;-59
2021/03/02 00:38:39;;;;;;;;;;;7.10;84.90;;;;;;5111591;27;19947;-57
2021/03/02 00:41:04;;;;;;;;;;;7.10;85.00;;;;;;5114651;27;20573;-59
2021/03/02 00:43:30;;;;;;;;;;;7.10;85.00;;;;;;5114774;27;19964;-58
2021/03/02 00:45:55;;;;;;;;;;;7.00;84.90;;;;;;5117061;27;19912;-57
2021/03/02 00:48:21;;;;;;;;;;;7.10;84.90;;;;;;5092770;28;19912;-57
2021/03/02 00:50:46;;;;;;;;;;;7.00;84.90;;;;;;5115420;27;19912;-57
2021/03/02 00:53:12;;;;;;;;;;;7.00;85.00;;;;;;5115275;27;20004;-60
2021/03/02 00:55:37;;;;;;;;;;;7.00;85.10;;;;;;5110055;28;19938;-59
2021/03/02 00:58:03;;;;;;;;;;;7.00;85.10;;;;;;5097105;28;19932;-58
2021/03/02 01:00:28;;;;;;;;;;;7.00;85.10;;;;;;5116993;27;20002;-59
2021/03/02 01:02:54;;;;;;;;;;;7.00;85.10;;;;;;5108771;28;20307;-57
2021/03/02 01:05:19;;;;;;;;;;;6.90;85.10;;;;;;5109608;28;19907;-59
2021/03/02 01:07:45;;;;;;;;;;;6.90;85.20;;;;;;5105974;28;19912;-58
2021/03/02 01:10:10;;;;;;;;;;;6.90;85.20;;;;;;5109289;28;20282;-59
2021/03/02 01:12:36;;;;;;;;;;;6.90;85.10;;;;;;5096384;27;19961;-56
2021/03/02 01:15:02;;;;;;;;;;;6.90;85.10;;;;;;5099825;28;19912;-59
2021/03/02 01:17:27;;;;;;;;;;;6.90;85.00;;;;;;5091572;28;19976;-57
2021/03/02 01:19:53;;;;;;;;;;;6.90;85.00;;;;;;5115154;27;20550;-56
2021/03/02 01:22:18;;;;;;;;;;;6.80;85.00;;;;;;5110656;27;19924;-59
2021/03/02 01:24:44;;;;;;;;;;;6.90;85.10;;;;;;5109146;27;19912;-56
2021/03/02 01:27:09;;;;;;;;;;;6.80;85.10;;;;;;5092584;28;19914;-59
2021/03/02 01:29:35;;;;;;;;;;;6.80;85.10;;;;;;5075871;28;19908;-58
2021/03/02 01:32:00;;;;;;;;;;;6.80;85.20;;;;;;5109889;28;19946;-56
2021/03/02 01:34:26;;;;;;;;;;;6.80;85.20;;;;;;5107308;27;20337;-57
2021/03/02 01:36:51;;;;;;;;;;;6.80;85.10;;;;;;5091737;28;19962;-57
2021/03/02 01:39:17;;;;;;;;;;;6.80;85.20;;;;;;5115500;27;19908;-58
2021/03/02 01:41:45;;;;;;;;;;;6.70;85.20;;;;;;5115265;27;19908;-56
2021/03/02 01:44:10;;;;;;;;;;;6.70;85.20;;;;;;5110035;28;19918;-60
2021/03/02 01:46:35;;;;;;;;;;;6.70;85.20;;;;;;5113389;27;19912;-57
2021/03/02 01:49:01;;;;;;;;;;;6.70;85.30;;;;;;5090761;28;19919;-58
2021/03/02 01:51:27;;;;;;;;;;;6.70;85.30;;;;;;5092429;28;19912;-57
2021/03/02 01:53:52;;;;;;;;;;;6.60;85.30;;;;;;5114603;28;19965;-58
2021/03/02 01:56:18;;;;;;;;;;;6.60;85.40;;;;;;5112841;28;20387;-59
2021/03/02 01:58:43;;;;;;;;;;;6.60;85.40;;;;;;5112996;28;19916;-57
2021/03/02 02:01:09;;;;;;;;;;;6.60;85.40;;;;;;5116225;28;20037;-57
2021/03/02 02:03:34;;;;;;;;;;;6.60;85.40;;;;;;5091839;28;19916;-56
2021/03/02 02:05:59;;;;;;;;;;;6.60;85.50;;;;;;5108925;28;19911;-59
2021/03/02 02:08:27;;;;;;;;;;;6.50;85.50;;;;;;5113399;28;20359;-57
2021/03/02 02:11:00;;;;;;;;;;;6.50;85.60;;;;;;5091028;28;19935;-58
2021/03/02 02:13:33;;;;;;;;;;;6.50;85.80;;;;;;5083851;28;19919;-59
2021/03/02 02:15:58;;;;;;;;;;;6.50;85.70;;;;;;5092494;28;19908;-60
2021/03/02 02:18:26;;;;;;;;;;;6.40;85.70;;;;;;5077395;28;20286;-57
2021/03/02 02:21:06;;;;;;;;;;;6.40;85.70;;;;;;5091941;28;20290;-61
2021/03/02 02:23:32;;;;;;;;;;;6.40;85.60;;;;;;5112376;28;19962;-57
2021/03/02 02:26:00;;;;;;;;;;;6.40;85.80;;;;;;5112254;28;19970;-57
2021/03/02 02:28:26;;;;;;;;;;;6.40;85.70;;;;;;5112062;28;19907;-58
2021/03/02 02:30:53;;;;;;;;;;;6.40;85.80;;;;;;5095294;28;20366;-57
2021/03/02 02:33:18;;;;;;;;;;;6.30;85.80;;;;;;5113738;28;19916;-57
2021/03/02 02:35:45;;;;;;;;;;;6.40;86.00;;;;;;5110703;28;20299;-58
2021/03/02 02:38:10;;;;;;;;;;;6.30;86.00;;;;;;5093337;28;20019;-58
2021/03/02 02:40:37;;;;;;;;;;;6.30;86.00;;;;;;5093151;28;20349;-60
2021/03/02 02:43:02;;;;;;;;;;;6.30;85.90;;;;;;5114598;27;19911;-58
2021/03/02 02:45:28;;;;;;;;;;;6.30;86.10;;;;;;5091595;28;20270;-57
2021/03/02 02:47:53;;;;;;;;;;;6.30;85.90;;;;;;5094012;28;19927;-58
2021/03/02 02:50:19;;;;;;;;;;;6.20;86.00;;;;;;5096546;28;19918;-58
2021/03/02 02:52:44;;;;;;;;;;;6.20;86.10;;;;;;5092056;28;19953;-59
2021/03/02 02:55:10;;;;;;;;;;;6.20;86.00;;;;;;5118533;27;19907;-56
2021/03/02 02:57:38;;;;;;;;;;;6.20;86.10;;;;;;5098534;27;19960;-56
2021/03/02 03:00:04;;;;;;;;;;;6.20;86.00;;;;;;5096703;28;19912;-58
2021/03/02 03:02:30;;;;;;;;;;;6.20;86.00;;;;;;5118720;27;19960;-59
2021/03/02 03:05:00;;;;;;;;;;;6.20;86.20;;;;;;5111130;28;20381;-56
2021/03/02 03:07:26;;;;;;;;;;;6.20;86.00;;;;;;5096522;28;19995;-57
2021/03/02 03:09:52;;;;;;;;;;;6.20;86.10;;;;;;5094768;28;19907;-57
2021/03/02 03:12:17;;;;;;;;;;;6.10;86.00;;;;;;5091381;28;19919;-59
2021/03/02 03:14:47;;;;;;;;;;;6.10;86.00;;;;;;5091522;28;19907;-58
2021/03/02 03:17:13;;;;;;;;;;;6.10;86.00;;;;;;5093548;28;19933;-57
2021/03/02 03:19:39;;;;;;;;;;;6.10;86.10;;;;;;5096329;28;19919;-60
2021/03/02 03:22:04;;;;;;;;;;;6.10;86.20;;;;;;5093629;28;19907;-59
2021/03/02 03:24:29;;;;;;;;;;;6.00;86.90;;;;;;5094292;28;19955;-59
2021/03/02 03:26:55;;;;;;;;;;;6.00;86.30;;;;;;5118351;27;20320;-60
2021/03/02 03:29:20;;;;;;;;;;;6.00;86.30;;;;;;5099109;28;19908;-57
2021/03/02 03:31:46;;;;;;;;;;;6.00;86.40;;;;;;5071863;28;19908;-58
2021/03/02 03:34:12;;;;;;;;;;;6.00;86.50;;;;;;5096683;28;20317;-59
2021/03/02 03:36:38;;;;;;;;;;;6.00;86.40;;;;;;5100061;28;20128;-57
2021/03/02 03:39:03;;;;;;;;;;;5.90;86.30;;;;;;5099599;28;19923;-59
2021/03/02 03:41:29;;;;;;;;;;;6.00;86.40;;;;;;5111741;28;19912;-58
2021/03/02 03:43:54;;;;;;;;;;;5.90;86.30;;;;;;5092172;28;19960;-56
2021/03/02 03:46:20;;;;;;;;;;;5.90;86.30;;;;;;5116547;27;19919;-57
2021/03/02 03:48:45;;;;;;;;;;;5.90;86.30;;;;;;5118350;27;20078;-58
2021/03/02 03:51:10;;;;;;;;;;;5.90;86.40;;;;;;5098327;27;19908;-61
2021/03/02 03:53:36;;;;;;;;;;;5.90;86.40;;;;;;5120159;27;19914;-59
2021/03/02 03:56:02;;;;;;;;;;;5.80;86.40;;;;;;5093047;28;20010;-57
2021/03/02 03:58:28;;;;;;;;;;;5.90;86.60;;;;;;5116534;27;19956;-57
2021/03/02 04:00:53;;;;;;;;;;;5.80;86.50;;;;;;5093360;28;19957;-59
2021/03/02 04:03:19;;;;;;;;;;;5.80;86.60;;;;;;5111897;28;19915;-56
2021/03/02 04:05:45;;;;;;;;;;;5.80;86.50;;;;;;5122288;27;19907;-58
2021/03/02 04:08:10;;;;;;;;;;;5.80;86.60;;;;;;5095242;28;19907;-59
2021/03/02 04:10:36;;;;;;;;;;;5.70;86.50;;;;;;5096034;28;19977;-57
2021/03/02 04:13:07;;;;;;;;;;;5.70;86.60;;;;;;5092136;28;19958;-59
2021/03/02 04:15:33;;;;;;;;;;;5.70;86.60;;;;;;5113763;27;19907;-58
2021/03/02 04:17:58;;;;;;;;;;;5.70;86.70;;;;;;5113453;27;19973;-57
2021/03/02 04:20:24;;;;;;;;;;;5.70;86.60;;;;;;5117210;27;19915;-59
2021/03/02 04:22:49;;;;;;;;;;;5.70;86.70;;;;;;5091743;28;19912;-57
2021/03/02 04:25:15;;;;;;;;;;;5.70;86.80;;;;;;5116744;27;20415;-58
2021/03/02 04:27:40;;;;;;;;;;;5.70;86.60;;;;;;5100013;28;19957;-59
2021/03/02 04:30:06;;;;;;;;;;;5.70;86.60;;;;;;5112882;27;19908;-59
2021/03/02 04:32:31;;;;;;;;;;;5.70;86.70;;;;;;5094307;28;20129;-58
2021/03/02 04:34:57;;;;;;;;;;;5.70;86.80;;;;;;5096543;27;20306;-60
2021/03/02 04:37:22;;;;;;;;;;;5.60;86.70;;;;;;5093220;28;19924;-57
2021/03/02 04:39:47;;;;;;;;;;;5.60;86.60;;;;;;5105074;27;19912;-58
2021/03/02 04:42:13;;;;;;;;;;;5.60;86.70;;;;;;5114863;27;19985;-57
2021/03/02 04:44:38;;;;;;;;;;;5.60;86.80;;;;;;5113052;27;20002;-58
2021/03/02 04:47:04;;;;;;;;;;;5.60;86.80;;;;;;5113003;27;19908;-57
2021/03/02 04:49:29;;;;;;;;;;;5.60;86.80;;;;;;5109157;27;19942;-59
2021/03/02 04:51:55;;;;;;;;;;;5.50;86.80;;;;;;5112045;27;19911;-57
2021/03/02 04:54:20;;;;;;;;;;;5.50;86.80;;;;;;5101771;28;19907;-58
2021/03/02 04:56:46;;;;;;;;;;;5.50;86.90;;;;;;5114288;27;20020;-57
2021/03/02 04:59:11;;;;;;;;;;;5.50;86.80;;;;;;5111336;27;20222;-59
2021/03/02 05:01:36;;;;;;;;;;;5.50;86.90;;;;;;5112699;27;19907;-57
2021/03/02 05:04:02;;;;;;;;;;;5.50;86.80;;;;;;5112214;27;19911;-57
2021/03/02 05:06:27;;;;;;;;;;;5.50;86.90;;;;;;5112140;27;19918;-58
2021/03/02 05:08:53;;;;;;;;;;;5.50;87.00;;;;;;5111975;27;19912;-58
2021/03/02 05:11:18;;;;;;;;;;;5.40;87.00;;;;;;5113377;27;19912;-57
2021/03/02 05:13:44;;;;;;;;;;;5.40;87.00;;;;;;5106062;27;20023;-59
2021/03/02 05:16:13;;;;;;;;;;;5.40;87.00;;;;;;5089722;28;19920;-56
2021/03/02 05:18:39;;;;;;;;;;;5.40;86.90;;;;;;5088056;28;19918;-57
2021/03/02 05:21:04;;;;;;;;;;;5.40;87.00;;;;;;5109362;27;20003;-58
2021/03/02 05:23:29;;;;;;;;;;;5.40;87.10;;;;;;5112758;28;20353;-57
2021/03/02 05:25:55;;;;;;;;;;;5.40;87.00;;;;;;5111165;27;19908;-59
2021/03/02 05:28:20;;;;;;;;;;;5.30;87.00;;;;;;5109496;28;19907;-57
2021/03/02 05:30:46;;;;;;;;;;;5.30;87.10;;;;;;5110959;27;20282;-59
2021/03/02 05:33:11;;;;;;;;;;;5.40;87.00;;;;;;5109348;27;19916;-58
2021/03/02 05:35:37;;;;;;;;;;;5.30;87.00;;;;;;5108233;27;19908;-57
2021/03/02 05:38:02;;;;;;;;;;;5.30;87.00;;;;;;5108739;28;19927;-59
2021/03/02 05:40:28;;;;;;;;;;;5.30;87.00;;;;;;5111194;27;20411;-57
2021/03/02 05:42:53;;;;;;;;;;;5.30;87.00;;;;;;5110024;28;19918;-58
2021/03/02 05:45:19;;;;;;;;;;;5.30;87.10;;;;;;5089366;28;19912;-57
2021/03/02 05:47:44;;;;;;;;;;;5.30;87.10;;;;;;5091724;28;19916;-58
2021/03/02 05:50:10;;;;;;;;;;;5.30;87.10;;;;;;5091976;28;19919;-57
2021/03/02 05:52:35;;;;;;;;;;;5.20;87.00;;;;;;5090540;28;20134;-57
2021/03/02 05:55:01;;;;;;;;;;;5.20;87.10;;;;;;5091393;28;19908;-58
2021/03/02 05:57:27;;;;;;;;;;;5.20;87.10;;;;;;5090906;28;19973;-60
2021/03/02 05:59:52;;;;;;;;;;;5.20;87.10;;;;;;5107268;28;19908;-57
2021/03/02 06:02:18;;;;;;;;;;;5.20;87.10;;;;;;5092607;28;19915;-57
2021/03/02 06:04:44;;;;;;;;;;;5.20;87.10;;;;;;5073741;28;19945;-57
2021/03/02 06:07:09;;;;;;;;;;;5.20;87.80;;;;;;5073842;28;19908;-58
2021/03/02 06:09:35;;;;;;;;;;;5.10;87.20;;;;;;5108150;28;19972;-57
2021/03/02 06:12:01;;;;;;;;;;;5.10;87.20;;;;;;5105294;28;20393;-58
2021/03/02 06:14:28;;;;;;;;;;;5.10;87.20;;;;;;5095649;28;19911;-58
2021/03/02 06:16:53;;;;;;;;;;;5.10;87.20;;;;;;5113249;28;19918;-58
2021/03/02 06:19:34;;;;;;;;;;;5.10;87.20;;;;;;5090419;28;19916;-58
2021/03/02 06:21:59;;;;;;;;;;;5.10;87.20;;;;;;5110133;28;19911;-59
2021/03/02 06:24:38;;;;;;;;;;;5.10;87.10;;;;;;5109099;28;20375;-60
2021/03/02 06:27:11;;;;;;;;;;;5.10;87.20;;;;;;5095257;28;19908;-59
2021/03/02 06:29:37;;;;;;;;;;;5.10;87.20;;;;;;5093958;28;19999;-60
2021/03/02 06:32:02;;;;;;;;;;;5.10;87.20;;;;;;5090724;28;20006;-59
2021/03/02 06:34:28;;;;;;;;;;;5.00;87.10;;;;;;5114660;28;19921;-57
2021/03/02 06:36:53;;;;;;;;;;;5.00;87.20;;;;;;5104899;28;19965;-59
2021/03/02 06:39:22;;;;;;;;;;;5.00;87.20;;;;;;5109977;28;19930;-58
2021/03/02 06:41:48;;;;;;;;;;;5.00;87.20;;;;;;5110287;28;19915;-57
2021/03/02 06:44:14;;;;;;;;;;;5.00;87.20;;;;;;5090211;28;20298;-59
2021/03/02 06:46:39;;;;;;;;;;;5.00;87.20;;;;;;5090218;28;19919;-56
2021/03/02 06:49:05;;;;;;;;;;;5.00;87.20;;;;;;5108166;28;20010;-59
2021/03/02 06:51:31;;;;;;;;;;;5.00;87.20;;;;;;5101920;28;19912;-57
2021/03/02 06:54:02;;;;;;;;;;;5.00;87.20;;;;;;5103291;28;19927;-58
2021/03/02 06:56:27;;;;;;;;;;;5.00;87.20;;;;;;5106040;28;19908;-59
2021/03/02 06:59:08;;;;;;;;;;;5.00;87.20;;;;;;5104684;28;19991;-58
2021/03/02 07:01:37;;;;;;;;;;;5.00;87.20;;;;;;5104258;28;19920;-59
2021/03/02 07:04:07;;;;;;;;;;;5.00;87.20;;;;;;5082659;28;19920;-56
2021/03/02 07:06:34;;;;;;;;;;;5.00;87.20;;;;;;5110399;28;20006;-57
2021/03/02 07:08:59;;;;;;;;;;;4.90;87.20;;;;;;5091937;28;20557;-59
2021/03/02 07:11:25;;;;;;;;;;;5.00;87.30;;;;;;5111505;27;19956;-60
2021/03/02 07:13:50;;;;;;;;;;;4.90;87.30;;;;;;5108912;28;19912;-59
2021/03/02 07:16:16;;;;;;;;;;;4.90;87.30;;;;;;5112178;27;19908;-57
2021/03/02 07:18:41;;;;;;;;;;;4.90;87.30;;;;;;5093672;28;19960;-57
2021/03/02 07:21:07;;;;;;;;;;;4.90;87.30;;;;;;5091111;28;19923;-57
2021/03/02 07:23:33;;;;;;;;;;;4.90;87.20;;;;;;5111518;27;19920;-59
2021/03/02 07:25:59;;;;;;;;;;;4.90;87.30;;;;;;5083694;28;20283;-58
2021/03/02 07:28:24;;;;;;;;;;;5.00;87.20;;;;;;5110927;27;20223;-56
2021/03/02 07:30:52;;;;;;;;;;;4.90;87.20;;;;;;5094436;28;19915;-57
2021/03/02 07:33:17;;;;;;;;;;;4.90;87.20;;;;;;5111101;28;19912;-56
2021/03/02 07:35:43;;;;;;;;;;;4.90;87.90;;;;;;5099284;28;19912;-59
2021/03/02 07:38:16;;;;;;;;;;;4.90;87.20;;;;;;5085353;28;19931;-58
2021/03/02 07:40:48;;;;;;;;;;;4.90;87.20;;;;;;5110828;27;19988;-57
2021/03/02 07:43:25;;;;;;;;;;;4.90;87.30;;;;;;5113015;27;19916;-57
2021/03/02 07:45:51;;;;;;;;;;;4.90;87.30;;;;;;5107609;28;19972;-60
2021/03/02 07:48:29;;;;;;;;;;;4.90;87.30;;;;;;5110726;27;19915;-58
2021/03/02 07:51:13;;;;;;;;;;;4.90;87.40;;;;;;5109145;28;20442;-59
2021/03/02 07:53:39;;;;;;;;;;;5.00;87.50;;;;;;5089890;28;19915;-58
2021/03/02 07:56:21;;;;;;;;;;;4.90;87.40;;;;;;5111260;28;20244;-57
2021/03/02 07:59:05;;;;;;;;;;;4.90;87.30;;;;;;5104380;27;20370;-56
2021/03/02 08:01:30;;;;;;;;;;;5.00;87.50;;;;;;5109599;27;20000;-57
2021/03/02 08:04:22;;;;;;;;;;;4.90;87.30;;;;;;5107759;28;20271;-58
2021/03/02 08:06:50;;;;;;;;;;;5.00;87.40;;;;;;5103931;27;20082;-57
2021/03/02 08:09:25;;;;;;;;;;;5.00;87.30;;;;;;5091118;27;20359;-60
2021/03/02 08:11:50;;;;;;;;;;;5.00;87.60;;;;;;5107747;27;19938;-57
2021/03/02 08:14:16;;;;;;;;;;;5.00;87.70;;;;;;5111498;27;20061;-59
2021/03/02 08:16:55;;;;;;;;;;;5.00;87.80;;;;;;5105996;27;19974;-57
2021/03/02 08:19:32;;;;;;;;;;;5.00;88.00;;;;;;5104585;28;20397;-60
2021/03/02 08:21:58;;;;;;;;;;;5.00;88.10;;;;;;5086877;28;21832;-58
2021/03/02 08:24:42;;;;;;;;;;;5.00;88.10;;;;;;5107195;28;20316;-58
2021/03/02 08:27:07;;;;;;;;;;;5.00;88.10;;;;;;5105777;27;20345;-60
2021/03/02 08:29:33;;;;;;;;;;;5.00;88.80;;;;;;5100789;27;19916;-59
2021/03/02 08:31:58;;;;;;;;;;;5.00;88.20;;;;;;5081015;28;19942;-58
2021/03/02 08:34:24;;;;;;;;;;;5.00;88.40;;;;;;5080354;28;19918;-56
2021/03/02 08:36:50;;;;;;;;;;;5.10;88.50;;;;;;5094248;27;19927;-58
2021/03/02 08:39:16;;;;;;;;;;;5.00;89.20;;;;;;5083596;28;19915;-59
2021/03/02 08:41:42;;;;;;;;;;;5.10;88.80;;;;;;5098661;28;20010;-57
2021/03/02 08:44:15;;;;;;;;;;;5.10;88.90;;;;;;5082185;28;20339;-57
2021/03/02 08:46:40;;;;;;;;;;;5.10;88.90;;;;;;5099348;27;19922;-57
2021/03/02 08:49:12;;;;;;;;;;;5.10;89.00;;;;;;5102815;28;19916;-59
2021/03/02 08:51:37;;;;;;;;;;;5.10;89.10;;;;;;5104304;28;19950;-57
2021/03/02 08:54:03;;;;;;;;;;;5.10;89.20;;;;;;5098504;28;20005;-57
2021/03/02 08:56:29;;;;;;;;;;;5.10;89.20;;;;;;5080963;28;19923;-59
2021/03/02 08:58:55;;;;;;;;;;;5.10;89.30;;;;;;5100521;28;19918;-57
2021/03/02 09:01:21;;;;;;;;;;;5.10;89.50;;;;;;5084759;28;19920;-57
2021/03/02 09:03:46;;;;;;;;;;;5.10;89.60;;;;;;5096196;28;19969;-56
2021/03/02 09:06:16;;;;;;;;;;;5.10;89.40;;;;;;5082518;28;19915;-57
2021/03/02 09:08:41;;;;;;;;;;;5.20;89.30;;;;;;5062072;28;19931;-56
2021/03/02 09:11:06;;;;;;;;;;;5.20;89.20;;;;;;5101754;27;20398;-58
2021/03/02 09:13:35;;;;;;;;;;;5.20;89.20;;;;;;5095752;28;19919;-59
2021/03/02 09:16:00;;;;;;;;;;;5.20;89.20;;;;;;5085800;28;20374;-59
2021/03/02 09:18:26;;;;;;;;;;;5.20;89.20;;;;;;5102283;28;19915;-57
2021/03/02 09:20:54;;;;;;;;;;;5.20;89.20;;;;;;5101300;28;20326;-57
2021/03/02 09:23:19;;;;;;;;;;;5.20;89.20;;;;;;5102803;28;19919;-57
2021/03/02 09:25:45;;;;;;;;;;;5.30;89.20;;;;;;5106953;28;20334;-59
2021/03/02 09:28:14;;;;;;;;;;;5.30;89.30;;;;;;5104620;28;19915;-57
2021/03/02 09:30:40;;;;;;;;;;;5.30;89.20;;;;;;5101682;27;19916;-56
2021/03/02 09:33:05;;;;;;;;;;;5.30;89.20;;;;;;5076704;28;19934;-57
2021/03/02 09:35:30;;;;;;;;;;;5.30;89.10;;;;;;5106663;27;19981;-57
2021/03/02 09:37:56;;;;;;;;;;;5.30;89.20;;;;;;5100659;28;19928;-58
2021/03/02 09:40:21;;;;;;;;;;;5.30;89.20;;;;;;5097689;28;20695;-56
2021/03/02 09:42:59;;;;;;;;;;;5.40;89.60;;;;;;5081736;28;19920;-59
2021/03/02 09:45:25;;;;;;;;;;;5.30;89.70;;;;;;5100036;28;19912;-58
2021/03/02 09:47:57;;;;;;;;;;;5.40;89.70;;;;;;5099710;28;19920;-58
2021/03/02 09:50:22;;;;;;;;;;;5.40;89.70;;;;;;5105948;28;19915;-59
2021/03/02 09:52:48;;;;;;;;;;;5.50;89.80;;;;;;5104514;28;20252;-57
2021/03/02 09:55:19;;;;;;;;;;;5.40;90.00;;;;;;5097482;28;19935;-56
2021/03/02 09:57:45;;;;;;;;;;;5.50;90.00;;;;;;5097183;28;19935;-58
2021/03/02 10:00:10;;;;;;;;;;;5.50;89.90;;;;;;5101156;28;20282;-57
2021/03/02 10:02:56;;;;;;;;;;;5.50;89.90;;;;;;5099781;28;20456;-58
2021/03/02 10:05:29;;;;;;;;;;;5.50;90.00;;;;;;5099316;28;19908;-57
2021/03/02 10:07:54;;;;;;;;;;;5.50;89.70;;;;;;5104373;28;20413;-58
2021/03/02 10:10:32;;;;;;;;;;;5.60;89.50;;;;;;5109488;28;19908;-58
2021/03/02 10:12:58;;;;;;;;;;;5.60;90.10;;;;;;5079818;28;19920;-59
2021/03/02 10:15:24;;;;;;;;;;;5.60;89.50;;;;;;5081538;28;19918;-59
2021/03/02 10:17:49;;;;;;;;;;;5.60;89.50;;;;;;5109095;28;19916;-60
2021/03/02 10:20:15;;;;;;;;;;;5.60;89.30;;;;;;5111381;28;20633;-59
2021/03/02 10:22:40;;;;;;;;;;;5.60;89.30;;;;;;5098413;28;19912;-59
2021/03/02 10:25:06;;;;;;;;;;;5.70;89.20;;;;;;5112880;28;19914;-57
2021/03/02 10:27:32;;;;;;;;;;;5.70;89.20;;;;;;5109207;28;20006;-57
2021/03/02 10:29:59;;;;;;;;;;;5.70;89.10;;;;;;5107197;28;19922;-56
2021/03/02 10:32:25;;;;;;;;;;;5.80;89.20;;;;;;5099783;28;19919;-59
2021/03/02 10:34:50;;;;;;;;;;;5.80;89.40;;;;;;5109953;28;19912;-56
2021/03/02 10:37:16;;;;;;;;;;;5.80;89.30;;;;;;5096898;28;20414;-59
2021/03/02 10:39:41;;;;;;;;;;;5.80;89.10;;;;;;5092733;28;19914;-56
2021/03/02 10:42:09;;;;;;;;;;;5.80;89.20;;;;;;5116510;28;19912;-58
2021/03/02 10:44:34;;;;;;;;;;;5.80;89.90;;;;;;5094227;28;19916;-58
2021/03/02 10:47:00;;;;;;;;;;;5.80;89.20;;;;;;5112253;27;19912;-60
2021/03/02 10:49:25;;;;;;;;;;;5.90;89.00;;;;;;5111344;27;20370;-58
2021/03/02 10:51:51;;;;;;;;;;;5.90;89.10;;;;;;5094489;28;19908;-57
2021/03/02 10:54:16;;;;;;;;;;;5.90;88.90;;;;;;5110430;28;19958;-56
2021/03/02 10:56:42;;;;;;;;;;;5.90;88.90;;;;;;5105190;27;20753;-58
2021/03/02 10:59:07;;;;;;;;;;;6.00;89.00;;;;;;5110426;27;19916;-58
2021/03/02 11:01:33;;;;;;;;;;;6.00;89.00;;;;;;5092122;28;20048;-58
2021/03/02 11:03:58;;;;;;;;;;;6.00;88.90;;;;;;5108649;28;19926;-57
2021/03/02 11:06:25;;;;;;;;;;;6.00;88.90;;;;;;5109572;27;19916;-57
2021/03/02 11:08:51;;;;;;;;;;;6.10;88.70;;;;;;5092051;28;20360;-57
2021/03/02 11:11:17;;;;;;;;;;;6.10;88.60;;;;;;5092427;28;19912;-60
2021/03/02 11:13:42;;;;;;;;;;;6.10;88.60;;;;;;5108516;28;19934;-57
2021/03/02 11:16:08;;;;;;;;;;;6.10;88.40;;;;;;5094987;28;19919;-58
2021/03/02 11:18:33;;;;;;;;;;;6.10;88.50;;;;;;5101299;27;19977;-58
2021/03/02 11:20:59;;;;;;;;;;;6.20;88.40;;;;;;5109677;27;19920;-59
2021/03/02 11:23:24;;;;;;;;;;;6.20;88.50;;;;;;5106313;27;19977;-57
2021/03/02 11:25:50;;;;;;;;;;;6.20;88.40;;;;;;5126369;27;19926;-59
2021/03/02 11:28:15;;;;;;;;;;;6.30;88.70;;;;;;5122000;27;19913;-57
2021/03/02 11:30:41;;;;;;;;;;;6.30;88.50;;;;;;5097341;27;19911;-59
2021/03/02 11:33:07;;;;;;;;;;;6.30;88.60;;;;;;5115900;27;19908;-59
2021/03/02 11:35:33;;;;;;;;;;;6.30;88.40;;;;;;5113909;27;20270;-59
2021/03/02 11:37:58;;;;;;;;;;;6.40;88.20;;;;;;5121173;27;20095;-59
2021/03/02 11:40:24;;;;;;;;;;;6.40;88.10;;;;;;5092250;27;19943;-60
2021/03/02 11:42:52;;;;;;;;;;;6.40;88.10;;;;;;5098337;28;19927;-59
2021/03/02 11:45:18;;;;;;;;;;;6.60;88.50;;;;;;5094722;27;19916;-60
2021/03/02 11:47:43;;;;;;;;;;;6.50;88.20;;;;;;5116589;27;20328;-57
2021/03/02 11:50:09;;;;;;;;;;;6.50;88.00;;;;;;5124915;27;20922;-56
2021/03/02 11:52:34;;;;;;;;;;;6.60;88.30;;;;;;5111539;27;19923;-56
2021/03/02 11:55:00;;;;;;;;;;;6.60;88.10;;;;;;5094229;28;19927;-60
2021/03/02 11:57:25;;;;;;;;;;;6.60;88.10;;;;;;5092825;28;20517;-58
2021/03/02 11:59:51;;;;;;;;;;;6.70;87.80;;;;;;5110712;27;19912;-56
2021/03/02 12:02:16;;;;;;;;;;;6.70;88.40;;;;;;5090657;28;19912;-57
2021/03/02 12:04:42;;;;;;;;;;;6.70;88.30;;;;;;5104458;28;19940;-58
2021/03/02 12:07:07;;;;;;;;;;;6.70;88.20;;;;;;5113167;27;19908;-59
2021/03/02 12:09:33;;;;;;;;;;;6.80;88.10;;;;;;5086697;28;20317;-56
2021/03/02 12:11:58;;;;;;;;;;;6.80;88.00;;;;;;5110111;27;19916;-59
2021/03/02 12:14:24;;;;;;;;;;;6.80;87.90;;;;;;5109066;28;19937;-59
2021/03/02 12:16:49;;;;;;;;;;;6.80;88.00;;;;;;5111595;27;19911;-59
2021/03/02 12:19:15;;;;;;;;;;;6.80;87.90;;;;;;5105780;28;20207;-60
2021/03/02 12:21:40;;;;;;;;;;;6.90;88.10;;;;;;5105776;28;20385;-59
2021/03/02 12:24:06;;;;;;;;;;;6.90;87.90;;;;;;5101933;28;19919;-57
2021/03/02 12:26:31;;;;;;;;;;;7.00;87.70;;;;;;5098399;28;19916;-58
2021/03/02 12:28:57;;;;;;;;;;;7.00;87.70;;;;;;5110826;27;19932;-57
2021/03/02 12:31:22;;;;;;;;;;;7.00;87.80;;;;;;5105939;27;19918;-59
2021/03/02 12:33:47;;;;;;;;;;;7.00;87.80;;;;;;5108823;28;19943;-58
2021/03/02 12:36:13;;;;;;;;;;;7.10;87.80;;;;;;5104865;28;19912;-58
2021/03/02 12:38:38;;;;;;;;;;;7.20;87.90;;;;;;5088108;28;19915;-59
2021/03/02 12:41:04;;;;;;;;;;;7.20;87.90;;;;;;5088946;28;20014;-59
2021/03/02 12:43:29;;;;;;;;;;;7.30;88.10;;;;;;5103944;28;19965;-59
2021/03/02 12:45:55;;;;;;;;;;;7.30;88.00;;;;;;5089848;28;19919;-57
2021/03/02 12:48:20;;;;;;;;;;;7.30;87.50;;;;;;5102918;27;19908;-57
2021/03/02 12:50:46;;;;;;;;;;;7.40;87.70;;;;;;5092732;28;19912;-59
2021/03/02 12:53:11;;;;;;;;;;;7.40;87.60;;;;;;5102808;27;19912;-57
2021/03/02 12:55:37;;;;;;;;;;;7.50;87.20;;;;;;5084243;28;19970;-57
2021/03/02 12:58:02;;;;;;;;;;;7.50;87.00;;;;;;5078035;28;19919;-59
2021/03/02 13:00:28;;;;;;;;;;;7.60;86.70;;;;;;5101907;27;19941;-57
2021/03/02 13:02:54;;;;;;;;;;;7.60;87.10;;;;;;5100419;27;19927;-60
2021/03/02 13:05:19;;;;;;;;;;;7.60;86.80;;;;;;5082608;28;20302;-59
2021/03/02 13:07:45;;;;;;;;;;;7.70;86.70;;;;;;5081695;27;19919;-59
2021/03/02 13:10:11;;;;;;;;;;;7.70;86.60;;;;;;5083101;28;19912;-57
2021/03/02 13:12:36;;;;;;;;;;;7.80;86.90;;;;;;5098075;27;20728;-59
2021/03/02 13:15:02;;;;;;;;;;;7.80;86.70;;;;;;5076404;28;19985;-58
2021/03/02 13:17:28;;;;;;;;;;;7.80;86.70;;;;;;5081838;28;19990;-58
2021/03/02 13:19:53;;;;;;;;;;;7.90;86.90;;;;;;5093214;28;19995;-57
2021/03/02 13:22:19;;;;;;;;;;;8.00;87.20;;;;;;5085072;28;21815;-59
2021/03/02 13:24:44;;;;;;;;;;;8.00;87.00;;;;;;5102898;28;19920;-59
2021/03/02 13:27:10;;;;;;;;;;;8.00;86.90;;;;;;5099976;28;20021;-58
2021/03/02 13:29:35;;;;;;;;;;;8.10;86.90;;;;;;5080064;28;20109;-56
2021/03/02 13:32:01;;;;;;;;;;;8.10;86.80;;;;;;5089331;27;19913;-60
2021/03/02 13:34:27;;;;;;;;;;;8.10;86.80;;;;;;5102240;28;20264;-60
2021/03/02 13:36:53;;;;;;;;;;;8.20;86.70;;;;;;5104680;27;19928;-60
2021/03/02 13:39:18;;;;;;;;;;;8.20;86.70;;;;;;5092115;28;19968;-58
2021/03/02 13:41:44;;;;;;;;;;;8.30;86.60;;;;;;5091261;27;20366;-56
2021/03/02 13:44:10;;;;;;;;;;;8.30;86.50;;;;;;5104504;28;20050;-57
2021/03/02 13:46:36;;;;;;;;;;;8.30;86.40;;;;;;5095148;28;20035;-58
2021/03/02 13:49:02;;;;;;;;;;;8.40;86.40;;;;;;5104226;28;20011;-60
2021/03/02 13:51:27;;;;;;;;;;;8.40;86.40;;;;;;5092017;28;19926;-57
2021/03/02 13:53:53;;;;;;;;;;;8.40;86.30;;;;;;5083919;28;19916;-57
2021/03/02 13:56:18;;;;;;;;;;;8.50;86.30;;;;;;5109853;28;19911;-58
2021/03/02 13:58:43;;;;;;;;;;;8.50;86.10;;;;;;5083093;28;20385;-58
2021/03/02 14:01:09;;;;;;;;;;;8.60;86.10;;;;;;5081452;28;19916;-59
2021/03/02 14:03:39;;;;;;;;;;;8.60;85.90;;;;;;5106181;28;19919;-60
2021/03/02 14:06:04;;;;;;;;;;;8.60;86.10;;;;;;5087259;28;19920;-57
2021/03/02 14:08:30;;;;;;;;;;;8.70;85.90;;;;;;5107992;28;20043;-60
2021/03/02 14:10:55;;;;;;;;;;;8.70;85.80;;;;;;5082346;28;20257;-60
2021/03/02 14:13:21;;;;;;;;;;;8.70;85.70;;;;;;5104669;28;20377;-60
2021/03/02 14:15:46;;;;;;;;;;;8.80;85.70;;;;;;5085213;28;19911;-58
2021/03/02 14:18:14;;;;;;;;;;;8.80;85.60;;;;;;5092357;28;19923;-59
2021/03/02 14:20:39;;;;;;;;;;;8.90;85.70;;;;;;5091964;28;19920;-61
2021/03/02 14:23:05;;;;;;;;;;;8.90;85.50;;;;;;5084612;28;19915;-57
2021/03/02 14:25:30;;;;;;;;;;;8.90;85.40;;;;;;5086220;28;19912;-57
2021/03/02 14:27:56;;;;;;;;;;;9.00;85.20;;;;;;5072376;28;19955;-57